Time;durP1;ratioP1;P1;durP2;ratioP2;P2;SDS_P1;SDS_P2;PMS_P1;PMS_P2;Temp;Humidity;BMP_temperature;BMP_pressure;BME280_temperature;BME280_humidity;BME280_pressure;Samples;Min_cycle;Max_cycle;Signal;HPM_P1;HPM_P2
2022/06/17 00:00:50;;;;;;;6.20;4.40;;;;;;;19.53;100.00;101498.94;2064556;28;20508;-67
2022/06/17 00:01:51;;;;;;;5.90;4.30;;;;;;;19.54;100.00;101495.69;2062795;28;20178;-67
2022/06/17 00:02:53;;;;;;;4.93;4.43;;;;;;;19.54;100.00;101501.31;2063532;28;20439;-67
2022/06/17 00:03:54;;;;;;;5.07;4.47;;;;;;;19.55;100.00;101496.47;2064374;28;20218;-67
2022/06/17 00:04:54;;;;;;;7.90;4.77;;;;;;;18.59;100.00;101361.63;2064262;28;20417;-67
2022/06/17 00:05:56;;;;;;;6.90;4.63;;;;;;;19.44;100.00;101494.13;2063763;28;20256;-66
2022/06/17 00:07:00;;;;;;;5.80;4.47;;;;;;;19.51;100.00;101493.81;2063658;28;20231;-67
2022/06/17 00:08:01;;;;;;;7.83;4.83;;;;;;;19.52;100.00;101501.00;2064268;28;20421;-66
2022/06/17 00:09:04;;;;;;;8.63;5.13;;;;;;;19.51;100.00;101501.47;2064324;28;20454;-66
2022/06/17 00:10:14;;;;;;;11.13;4.90;;;;;;;19.50;100.00;101505.53;2064591;28;20244;-67
2022/06/17 00:11:23;;;;;;;11.77;5.40;;;;;;;19.48;100.00;101522.88;2063038;28;20974;-67
2022/06/17 00:12:24;;;;;;;11.83;5.37;;;;;;;19.54;100.00;101497.72;2064098;28;20427;-67
2022/06/17 00:13:25;;;;;;;9.77;5.27;;;;;;;19.57;100.00;101491.13;2063679;28;20469;-66
2022/06/17 00:14:31;;;;;;;10.87;5.07;;;;;;;19.27;100.00;101447.19;2064338;28;20192;-67
2022/06/17 00:15:31;;;;;;;8.60;5.00;;;;;;;19.32;100.00;101450.16;2064415;28;20494;-66
2022/06/17 00:16:32;;;;;;;8.30;5.20;;;;;;;19.57;100.00;101491.94;2064351;28;20541;-66
2022/06/17 00:17:32;;;;;;;14.33;5.40;;;;;;;19.49;100.00;101473.81;2064538;28;20699;-67
2022/06/17 00:18:33;;;;;;;12.13;5.20;;;;;;;19.49;100.00;101461.81;2065376;28;20189;-66
2022/06/17 00:19:33;;;;;;;8.73;4.83;;;;;;;19.18;100.00;101430.34;2065804;28;20186;-67
2022/06/17 00:20:35;;;;;;;10.53;5.13;;;;;;;19.60;100.00;101481.78;2065954;28;20634;-66
2022/06/17 00:21:43;;;;;;;10.17;5.00;;;;;;;19.60;100.00;101482.53;2064563;28;20176;-67
2022/06/17 00:22:45;;;;;;;7.00;4.70;;;;;;;19.64;100.00;101491.59;2065223;28;20414;-66
2022/06/17 00:23:46;;;;;;;9.03;4.67;;;;;;;19.59;100.00;101474.59;2065904;28;20569;-66
2022/06/17 00:24:47;;;;;;;7.80;4.50;;;;;;;19.66;100.00;101477.81;2065897;28;20475;-66
2022/06/17 00:25:49;;;;;;;8.23;4.60;;;;;;;18.93;100.00;101372.47;2065816;28;20208;-66
2022/06/17 00:26:51;;;;;;;7.97;4.40;;;;;;;18.92;100.00;101370.91;2065826;28;20893;-66
2022/06/17 00:27:52;;;;;;;7.43;4.57;;;;;;;19.58;100.00;101479.44;2065857;28;20431;-66
2022/06/17 00:28:53;;;;;;;6.77;4.50;;;;;;;19.61;100.00;101480.50;2065790;28;20928;-67
2022/06/17 00:29:53;;;;;;;7.57;4.90;;;;;;;19.42;100.00;101450.88;2065854;28;20816;-67
2022/06/17 00:30:54;;;;;;;6.47;4.37;;;;;;;19.47;100.00;101481.97;2065824;28;20179;-66
2022/06/17 00:31:54;;;;;;;7.13;4.53;;;;;;;19.44;100.00;101482.91;2064503;28;20216;-67
2022/06/17 00:32:58;;;;;;;7.40;4.20;;;;;;;19.40;100.00;101476.66;2065220;28;20629;-67
2022/06/17 00:33:58;;;;;;;5.43;4.40;;;;;;;19.45;100.00;101478.06;2065611;28;20186;-67
2022/06/17 00:34:58;;;;;;;6.93;4.57;;;;;;;19.47;100.00;101481.16;2065792;28;20930;-67
2022/06/17 00:35:59;;;;;;;6.33;4.30;;;;;;;19.44;100.00;101471.66;2065763;28;20204;-66
2022/06/17 00:37:01;;;;;;;8.07;4.53;;;;;;;18.79;100.00;101375.91;2065838;28;20661;-67
2022/06/17 00:38:02;;;;;;;6.40;4.47;;;;;;;19.43;100.00;101477.75;2065824;28;20171;-67
2022/06/17 00:39:12;;;;;;;5.67;4.27;;;;;;;19.44;100.00;101482.91;2065788;28;20826;-67
2022/06/17 00:40:18;;;;;;;5.60;4.27;;;;;;;19.46;100.00;101471.97;2065168;28;20500;-67
2022/06/17 00:41:37;;;;;;;5.40;4.27;;;;;;;19.47;100.00;101472.75;2063914;28;20412;-66
2022/06/17 00:42:37;;;;;;;5.80;4.17;;;;;;;19.47;100.00;101470.72;2064932;28;20980;-67
2022/06/17 00:43:40;;;;;;;5.03;3.73;;;;;;;19.50;100.00;101475.38;2064947;28;20826;-66
2022/06/17 00:45:02;;;;;;;5.30;4.27;;;;;;;19.50;100.00;101474.63;2065296;28;20675;-67
2022/06/17 00:46:18;;;;;;;6.40;4.10;;;;;;;19.50;100.00;101469.00;2065876;28;20503;-67
2022/06/17 00:47:45;;;;;;;5.30;4.40;;;;;;;19.46;100.00;101469.16;2065762;28;20417;-67
2022/06/17 00:49:14;;;;;;;7.30;4.47;;;;;;;19.44;100.00;101476.50;2065619;28;21159;-67
2022/06/17 00:50:40;;;;;;;6.30;4.17;;;;;;;19.44;100.00;101479.31;2065587;28;20409;-67
2022/06/17 00:51:45;;;;;;;6.40;4.40;;;;;;;19.41;100.00;101478.25;2041286;28;20490;-67
2022/06/17 00:52:58;;;;;;;8.17;4.33;;;;;;;18.86;100.00;101406.50;2064843;28;20491;-66
2022/06/17 00:54:13;;;;;;;12.80;4.03;;;;;;;19.02;100.00;101436.28;2065504;28;20409;-66
2022/06/17 00:55:40;;;;;;;6.83;3.90;;;;;;;19.31;100.00;101473.88;2065634;28;20844;-67
2022/06/17 00:56:40;;;;;;;5.53;3.80;;;;;;;19.27;100.00;101470.47;2060047;28;20967;-66
2022/06/17 00:57:41;;;;;;;5.73;4.10;;;;;;;19.23;100.00;101469.03;2065557;28;20814;-67
2022/06/17 00:59:09;;;;;;;8.77;4.10;;;;;;;19.22;100.00;101465.47;2065641;28;20578;-67
2022/06/17 01:00:27;;;;;;;7.07;3.77;;;;;;;19.16;100.00;101464.53;2065673;28;20420;-67
2022/06/17 01:01:32;;;;;;;6.53;4.47;;;;;;;18.65;100.00;101387.81;2063762;28;20747;-67
2022/06/17 01:02:40;;;;;;;5.87;4.30;;;;;;;18.25;100.00;101328.25;2064361;28;20521;-67
2022/06/17 01:03:40;;;;;;;5.63;4.10;;;;;;;18.83;100.00;101413.06;2065453;28;20456;-66
2022/06/17 01:04:48;;;;;;;4.83;4.13;;;;;;;19.18;100.00;101462.00;2065642;28;20424;-66
2022/06/17 01:05:53;;;;;;;4.80;4.10;;;;;;;19.19;100.00;101460.75;2065710;28;20663;-66
2022/06/17 01:07:20;;;;;;;4.50;3.90;;;;;;;19.15;100.00;101460.16;2065375;28;20569;-67
2022/06/17 01:10:01;;;;;;;6.53;4.47;;;;;;;19.13;100.00;101464.69;2059073;28;20933;-66
2022/06/17 01:11:02;;;;;;;5.03;4.53;;;;;;;19.09;100.00;101470.44;2056934;28;20398;-67
2022/06/17 01:12:08;;;;;;;5.03;4.47;;;;;;;19.03;100.00;101460.34;2056688;28;20411;-66
2022/06/17 01:13:10;;;;;;;5.40;4.90;;;;;;;19.11;100.00;101473.59;2056938;28;20395;-67
2022/06/17 01:14:15;;;;;;;7.60;4.50;;;;;;;19.12;100.00;101471.53;2057332;28;20868;-67
2022/06/17 01:15:20;;;;;;;5.87;4.77;;;;;;;19.11;100.00;101470.78;2056814;28;20426;-67
2022/06/17 01:16:30;;;;;;;6.47;4.90;;;;;;;19.07;100.00;101466.53;2064414;28;20421;-67
2022/06/17 01:17:31;;;;;;;8.63;5.60;;;;;;;19.08;100.00;101468.13;2065546;28;20464;-66
2022/06/17 01:18:36;;;;;;;6.03;5.10;;;;;;;19.06;100.00;101471.41;2065336;28;20424;-66
2022/06/17 01:19:48;;;;;;;5.77;5.07;;;;;;;19.06;100.00;101467.81;2065543;28;20417;-67
2022/06/17 01:20:55;;;;;;;5.80;5.20;;;;;;;19.02;100.00;101473.59;2065534;28;20413;-67
2022/06/17 01:22:05;;;;;;;5.40;4.90;;;;;;;18.99;100.00;101470.94;2064327;28;20442;-66
2022/06/17 01:23:10;;;;;;;7.43;5.17;;;;;;;18.96;100.00;101472.66;2064730;28;20410;-66
2022/06/17 01:24:11;;;;;;;5.20;4.70;;;;;;;18.96;100.00;101471.88;2065420;28;20401;-67
2022/06/17 01:25:20;;;;;;;6.50;4.70;;;;;;;18.94;100.00;101471.56;2065436;28;20414;-67
2022/06/17 01:26:21;;;;;;;6.90;4.90;;;;;;;18.15;100.00;101343.53;2065469;28;20571;-67
2022/06/17 01:27:25;;;;;;;5.60;5.00;;;;;;;18.94;100.00;101474.38;2065492;28;20481;-67
2022/06/17 01:28:26;;;;;;;5.90;4.97;;;;;;;18.97;100.00;101473.41;2065070;28;20869;-66
2022/06/17 01:29:26;;;;;;;6.77;4.90;;;;;;;18.99;100.00;101468.13;2064661;28;20458;-67
2022/06/17 01:30:33;;;;;;;5.60;4.90;;;;;;;18.99;100.00;101468.13;2065385;28;20573;-67
2022/06/17 01:31:34;;;;;;;7.10;4.50;;;;;;;19.06;100.00;101473.41;2063919;28;20196;-67
2022/06/17 01:32:39;;;;;;;6.50;4.93;;;;;;;19.01;100.00;101469.22;2064752;28;20429;-67
2022/06/17 01:33:43;;;;;;;6.93;5.30;;;;;;;19.02;100.00;101469.97;2065121;28;20188;-67
2022/06/17 01:34:43;;;;;;;5.97;4.67;;;;;;;18.40;100.00;101382.53;2065542;28;20425;-67
2022/06/17 01:35:50;;;;;;;8.27;5.43;;;;;;;18.01;100.00;101329.34;2065314;28;20943;-66
2022/06/17 01:36:52;;;;;;;5.63;5.00;;;;;;;18.85;100.00;101469.56;2065298;28;20170;-66
2022/06/17 01:37:53;;;;;;;5.50;4.90;;;;;;;18.90;100.00;101471.72;2065208;28;20932;-66
2022/06/17 01:38:57;;;;;;;6.90;4.83;;;;;;;18.92;100.00;101469.22;2065228;28;20429;-66
2022/06/17 01:40:16;;;;;;;8.03;5.13;;;;;;;18.97;100.00;101467.81;2065408;28;20421;-66
2022/06/17 01:41:19;;;;;;;7.37;4.97;;;;;;;18.92;100.00;101466.41;2064048;28;20409;-67
2022/06/17 01:42:21;;;;;;;6.57;5.37;;;;;;;18.76;100.00;101444.28;2065152;28;20425;-66
2022/06/17 01:43:26;;;;;;;5.93;5.40;;;;;;;18.92;100.00;101474.84;2064680;28;20961;-67
2022/06/17 01:44:33;;;;;;;10.03;5.70;;;;;;;18.83;100.00;101460.78;2065227;28;20470;-66
2022/06/17 01:45:39;;;;;;;6.10;5.50;;;;;;;18.84;100.00;101470.00;2065211;28;20512;-66
2022/06/17 01:46:43;;;;;;;5.00;4.50;;;;;;;18.57;100.00;101450.38;2065325;28;20401;-67
2022/06/17 01:47:44;;;;;;;6.63;4.60;;;;;;;18.58;100.00;101465.97;2064487;28;20497;-66
2022/06/17 01:48:55;;;;;;;5.17;4.47;;;;;;;18.56;100.00;101466.41;2064569;28;20622;-66
2022/06/17 01:50:01;;;;;;;6.47;4.30;;;;;;;18.46;100.00;101464.84;2065232;28;20414;-67
2022/06/17 01:51:04;;;;;;;6.90;4.53;;;;;;;18.02;100.00;101413.78;2064493;28;20962;-66
2022/06/17 01:52:11;;;;;;;7.00;4.47;;;;;;;18.40;100.00;101466.72;2064506;28;20417;-66
2022/06/17 01:53:16;;;;;;;5.50;5.00;;;;;;;18.37;100.00;101464.84;2064512;28;20460;-66
2022/06/17 01:54:26;;;;;;;9.80;5.63;;;;;;;18.17;100.00;101470.06;2065122;28;21093;-66
2022/06/17 01:55:32;;;;;;;7.03;5.07;;;;;;;18.17;100.00;101470.84;2065299;28;20401;-67
2022/06/17 01:56:36;;;;;;;8.70;5.63;;;;;;;18.19;100.00;101467.59;2065396;28;20412;-66
2022/06/17 01:57:46;;;;;;;6.27;5.60;;;;;;;18.18;100.00;101469.59;2065019;28;20432;-66
2022/06/17 01:58:55;;;;;;;6.60;6.00;;;;;;;18.11;100.00;101471.91;2065126;28;20405;-66
2022/06/17 02:00:01;;;;;;;7.03;5.70;;;;;;;18.06;100.00;101463.34;2065149;28;20397;-66
2022/06/17 02:01:04;;;;;;;10.43;6.07;;;;;;;18.01;100.00;101469.56;2064546;28;20408;-66
2022/06/17 02:02:05;;;;;;;12.40;6.67;;;;;;;17.96;100.00;101476.53;2064472;28;20418;-66
2022/06/17 02:03:12;;;;;;;8.37;6.27;;;;;;;17.94;100.00;101468.59;2064540;28;20448;-66
2022/06/17 02:04:18;;;;;;;7.77;5.90;;;;;;;17.91;100.00;101474.34;2065098;28;20408;-66
2022/06/17 02:05:21;;;;;;;6.77;5.67;;;;;;;17.20;100.00;101366.28;2065064;28;20441;-66
2022/06/17 02:06:42;;;;;;;6.77;5.90;;;;;;;17.98;100.00;101479.69;2064897;28;20473;-66
2022/06/17 02:07:58;;;;;;;7.47;6.30;;;;;;;18.02;100.00;101478.28;2064451;28;20443;-67
2022/06/17 02:08:58;;;;;;;7.37;6.23;;;;;;;18.05;100.00;101487.81;2065145;28;20423;-66
2022/06/17 02:09:59;;;;;;;11.87;6.23;;;;;;;17.88;100.00;101457.66;2064908;28;20440;-66
2022/06/17 02:11:03;;;;;;;19.27;6.70;;;;;;;18.05;100.00;101482.19;2064619;28;20170;-66
2022/06/17 02:12:05;;;;;;;17.33;7.07;;;;;;;18.05;100.00;101479.38;2064159;28;20233;-66
2022/06/17 02:13:07;;;;;;;15.60;7.03;;;;;;;18.02;100.00;101479.53;2064362;28;20801;-67
2022/06/17 02:14:09;;;;;;;15.10;6.60;;;;;;;17.92;100.00;101475.94;2064874;28;20425;-66
2022/06/17 02:15:10;;;;;;;11.97;6.03;;;;;;;17.43;100.00;101421.84;2064356;28;20424;-66
2022/06/17 02:16:11;;;;;;;10.67;5.97;;;;;;;17.55;100.00;101417.38;2064360;28;20607;-66
2022/06/17 02:17:12;;;;;;;10.40;6.13;;;;;;;17.88;100.00;101487.28;2065002;28;20414;-66
2022/06/17 02:18:18;;;;;;;8.83;6.20;;;;;;;17.88;100.00;101487.28;2065055;28;20170;-67
2022/06/17 02:19:24;;;;;;;8.37;5.90;;;;;;;17.96;100.00;101487.75;2064823;28;20163;-67
2022/06/17 02:20:25;;;;;;;6.83;5.90;;;;;;;17.65;100.00;101449.81;2064997;28;20576;-66
2022/06/17 02:21:42;;;;;;;10.80;6.73;;;;;;;17.52;100.00;101407.09;2063620;28;20432;-67
2022/06/17 02:22:43;;;;;;;8.67;6.40;;;;;;;18.07;100.00;101482.50;2064169;28;20439;-66
2022/06/17 02:23:44;;;;;;;8.07;6.63;;;;;;;18.08;100.00;101487.66;2064872;28;20425;-67
2022/06/17 02:24:49;;;;;;;7.23;6.10;;;;;;;18.08;100.00;101493.25;2065083;28;20419;-67
2022/06/17 02:25:52;;;;;;;7.47;6.03;;;;;;;18.08;100.00;101490.47;2064943;28;20860;-67
2022/06/17 02:26:53;;;;;;;6.80;6.10;;;;;;;18.12;100.00;101492.34;2064951;28;20852;-67
2022/06/17 02:27:57;;;;;;;7.93;6.00;;;;;;;18.12;100.00;101493.13;2064923;28;20966;-66
2022/06/17 02:28:58;;;;;;;9.00;5.90;;;;;;;18.17;100.00;101496.09;2064901;28;20876;-66
2022/06/17 02:30:00;;;;;;;9.80;5.80;;;;;;;17.45;100.00;101371.72;2064875;28;20414;-66
2022/06/17 02:31:01;;;;;;;9.77;6.00;;;;;;;18.22;100.00;101491.13;2064368;28;20966;-66
2022/06/17 02:32:06;;;;;;;11.47;6.10;;;;;;;18.28;100.00;101492.88;2064207;28;20468;-67
2022/06/17 02:33:09;;;;;;;11.33;6.00;;;;;;;18.31;100.00;101491.16;2064111;28;20416;-66
2022/06/17 02:34:14;;;;;;;10.87;5.90;;;;;;;18.38;100.00;101494.44;2064765;28;20424;-67
2022/06/17 02:35:31;;;;;;;10.93;5.90;;;;;;;18.38;100.00;101488.06;2064862;28;20405;-66
2022/06/17 02:36:46;;;;;;;10.03;5.87;;;;;;;18.37;100.00;101486.50;2064829;28;20493;-66
2022/06/17 02:37:47;;;;;;;11.13;5.93;;;;;;;18.31;100.00;101479.94;2064986;28;20911;-66
2022/06/17 02:38:47;;;;;;;10.10;6.40;;;;;;;18.05;100.00;101445.72;2064918;28;20796;-67
2022/06/17 02:39:50;;;;;;;8.83;5.70;;;;;;;18.36;100.00;101484.94;2064925;28;20662;-66
2022/06/17 02:40:54;;;;;;;11.37;6.37;;;;;;;17.92;100.00;101422.66;2064754;28;20217;-66
2022/06/17 02:41:56;;;;;;;10.93;6.00;;;;;;;18.45;100.00;101499.00;2063914;28;20414;-66
2022/06/17 02:43:00;;;;;;;8.53;5.83;;;;;;;18.47;100.00;101476.88;2064188;28;20427;-67
2022/06/17 02:44:11;;;;;;;8.27;5.70;;;;;;;18.56;100.00;101491.69;2064652;28;20418;-67
2022/06/17 02:45:19;;;;;;;6.83;5.60;;;;;;;18.60;100.00;101475.47;2064828;28;20477;-67
2022/06/17 02:46:23;;;;;;;7.30;5.30;;;;;;;18.60;100.00;101481.09;2064807;28;20872;-67
2022/06/17 02:47:25;;;;;;;8.90;5.93;;;;;;;18.57;100.00;101478.44;2064704;28;20491;-66
2022/06/17 02:48:31;;;;;;;11.30;5.87;;;;;;;18.54;100.00;101470.94;2064826;28;20422;-66
2022/06/17 02:49:35;;;;;;;8.70;5.47;;;;;;;18.49;100.00;101475.16;2064602;28;20405;-67
2022/06/17 02:50:35;;;;;;;8.73;5.80;;;;;;;18.52;100.00;101474.22;2064795;28;20474;-67
2022/06/17 02:51:39;;;;;;;10.57;5.43;;;;;;;18.56;100.00;101477.66;2063473;28;20525;-67
2022/06/17 02:52:40;;;;;;;12.00;6.37;;;;;;;18.55;100.00;101492.94;2063960;28;20179;-66
2022/06/17 02:53:42;;;;;;;22.23;7.30;;;;;;;18.50;100.00;101478.72;2064652;28;20505;-66
2022/06/17 02:54:48;;;;;;;19.40;7.10;;;;;;;18.48;100.00;101470.00;2064764;28;20424;-66
2022/06/17 02:55:48;;;;;;;20.53;6.57;;;;;;;18.48;100.00;101475.63;2064716;28;20416;-66
2022/06/17 02:56:52;;;;;;;18.87;5.77;;;;;;;18.47;100.00;101468.44;2064748;28;20419;-67
2022/06/17 02:58:04;;;;;;;12.83;6.17;;;;;;;18.45;100.00;101470.91;2064671;28;20668;-66
2022/06/17 02:59:22;;;;;;;14.30;5.90;;;;;;;18.43;100.00;101468.56;2064748;28;20410;-67
2022/06/17 03:00:23;;;;;;;13.13;5.47;;;;;;;18.37;100.00;101464.84;2064772;28;20475;-67
2022/06/17 03:01:27;;;;;;;15.67;5.87;;;;;;;17.63;100.00;101344.53;2063298;28;20420;-66
2022/06/17 03:03:01;;;;;;;12.17;6.00;;;;;;;18.50;100.00;101475.91;2064502;28;20178;-67
2022/06/17 03:04:11;;;;;;;12.53;6.00;;;;;;;18.49;100.00;101469.53;2052080;28;20496;-67
2022/06/17 03:05:25;;;;;;;19.13;5.70;;;;;;;18.41;100.00;101476.69;2064677;28;20915;-67
2022/06/17 03:06:40;;;;;;;13.43;6.67;;;;;;;18.41;100.00;101482.31;2064593;28;20474;-66
2022/06/17 03:07:42;;;;;;;9.10;5.77;;;;;;;18.37;100.00;101483.72;2062644;28;20426;-66
2022/06/17 03:08:47;;;;;;;12.13;6.10;;;;;;;17.56;100.00;101365.69;2063773;28;20425;-66
2022/06/17 03:09:48;;;;;;;7.80;6.00;;;;;;;18.35;100.00;101486.97;2062136;28;20431;-66
2022/06/17 03:10:51;;;;;;;10.40;6.17;;;;;;;18.34;100.00;101491.03;2064299;28;20410;-67
2022/06/17 03:12:04;;;;;;;7.97;6.40;;;;;;;18.29;100.00;101494.41;2062958;28;20201;-66
2022/06/17 03:13:14;;;;;;;11.77;6.23;;;;;;;18.31;100.00;101494.72;2064042;28;20399;-66
2022/06/17 03:14:14;;;;;;;15.03;7.40;;;;;;;18.22;100.00;101489.09;2064454;28;20457;-66
2022/06/17 03:15:18;;;;;;;13.97;7.07;;;;;;;18.37;100.00;101497.75;2064583;28;20570;-67
2022/06/17 03:16:21;;;;;;;14.67;6.70;;;;;;;18.38;100.00;101488.84;2063794;28;20189;-67
2022/06/17 03:17:24;;;;;;;10.00;6.63;;;;;;;18.47;100.00;101499.31;2063936;28;20765;-66
2022/06/17 03:18:27;;;;;;;12.33;5.73;;;;;;;18.53;100.00;101503.06;2063817;28;20981;-67
2022/06/17 03:19:29;;;;;;;9.23;5.70;;;;;;;17.97;100.00;101410.03;2064132;28;20421;-67
2022/06/17 03:20:35;;;;;;;8.67;5.50;;;;;;;18.60;100.00;101497.13;2064546;28;20428;-66
2022/06/17 03:21:36;;;;;;;7.93;5.43;;;;;;;18.66;100.00;101495.28;2063079;28;20472;-66
2022/06/17 03:22:37;;;;;;;17.47;6.30;;;;;;;18.30;100.00;101448.28;2063788;28;20509;-66
2022/06/17 03:24:01;;;;;;;13.63;6.07;;;;;;;18.72;100.00;101505.41;2064400;28;20663;-67
2022/06/17 03:25:04;;;;;;;8.70;6.00;;;;;;;18.73;100.00;101511.81;2064604;28;20444;-66
2022/06/17 03:26:15;;;;;;;9.63;5.17;;;;;;;18.72;100.00;101515.88;2064288;28;20433;-67
2022/06/17 03:27:32;;;;;;;9.53;5.30;;;;;;;18.69;100.00;101497.16;2064605;28;20553;-66
2022/06/17 03:28:40;;;;;;;8.83;5.30;;;;;;;18.75;100.00;101501.69;2064049;28;20409;-67
2022/06/17 03:29:44;;;;;;;9.23;5.10;;;;;;;18.75;100.00;101504.50;2063907;28;20926;-66
2022/06/17 03:30:50;;;;;;;6.50;4.93;;;;;;;18.81;100.00;101505.44;2064484;28;20508;-66
2022/06/17 03:32:24;;;;;;;9.60;5.47;;;;;;;18.76;100.00;101497.63;2060162;28;20814;-66
2022/06/17 03:33:37;;;;;;;7.00;5.40;;;;;;;18.72;100.00;101505.41;2063656;28;20970;-67
2022/06/17 03:34:49;;;;;;;7.77;5.37;;;;;;;18.74;100.00;101499.34;2064517;28;20414;-66
2022/06/17 03:35:53;;;;;;;5.87;5.20;;;;;;;18.75;100.00;101512.91;2064514;28;20445;-66
2022/06/17 03:37:02;;;;;;;8.07;5.53;;;;;;;17.92;100.00;101377.78;2064358;28;20508;-66
2022/06/17 03:38:19;;;;;;;11.23;5.70;;;;;;;18.76;100.00;101511.66;2063233;28;20530;-67
2022/06/17 03:39:28;;;;;;;8.30;5.60;;;;;;;18.75;100.00;101514.94;2064057;28;20413;-67
2022/06/17 03:40:36;;;;;;;9.87;5.60;;;;;;;18.81;100.00;101521.47;2063967;28;20919;-67
2022/06/17 03:41:46;;;;;;;15.03;6.40;;;;;;;18.80;100.00;101522.75;2063174;28;20398;-66
2022/06/17 03:43:02;;;;;;;7.13;5.50;;;;;;;18.84;100.00;101521.31;2063722;28;20417;-66
2022/06/17 03:44:25;;;;;;;7.27;5.87;;;;;;;18.64;100.00;101478.91;2064248;28;20397;-67
2022/06/17 03:45:32;;;;;;;7.77;5.30;;;;;;;19.01;100.00;101525.41;2064352;28;20432;-66
2022/06/17 03:46:43;;;;;;;6.97;5.50;;;;;;;19.04;100.00;101524.44;2064352;28;20459;-66
2022/06/17 03:47:53;;;;;;;8.73;5.90;;;;;;;19.08;100.00;101533.50;2064404;28;20403;-66
2022/06/17 03:49:07;;;;;;;14.37;6.70;;;;;;;19.10;100.00;101531.03;2064506;28;20402;-67
2022/06/17 03:50:17;;;;;;;8.73;6.20;;;;;;;18.20;100.00;101387.78;2063969;28;20414;-66
2022/06/17 03:51:21;;;;;;;9.10;5.73;;;;;;;19.19;100.00;101536.63;2063219;28;20815;-66
2022/06/17 03:52:51;;;;;;;9.67;5.90;;;;;;;19.29;100.00;101529.78;2064638;28;20418;-66
2022/06/17 03:53:52;;;;;;;12.07;5.80;;;;;;;19.39;100.00;101542.56;2057142;28;20966;-66
2022/06/17 03:54:53;;;;;;;9.03;6.07;;;;;;;19.43;100.00;101528.34;2065995;28;20402;-67
2022/06/17 03:55:57;;;;;;;7.60;6.00;;;;;;;19.39;100.00;101527.75;2066075;28;20447;-67
2022/06/17 03:56:58;;;;;;;7.93;5.80;;;;;;;19.45;100.00;101529.44;2066176;28;20245;-67
2022/06/17 03:58:01;;;;;;;7.17;6.00;;;;;;;19.45;100.00;101518.19;2065519;28;20971;-66
2022/06/17 03:59:07;;;;;;;11.43;5.80;;;;;;;18.57;100.00;101392.19;2066184;28;20411;-67
2022/06/17 04:00:19;;;;;;;9.60;6.23;;;;;;;19.42;100.00;101527.56;2065944;28;20445;-66
2022/06/17 04:01:23;;;;;;;10.60;6.60;;;;;;;19.47;100.00;101529.75;2064112;28;20427;-66
2022/06/17 04:02:29;;;;;;;16.07;6.90;;;;;;;19.09;100.00;101467.63;2065707;28;20426;-67
2022/06/17 04:03:34;;;;;;;18.30;7.00;;;;;;;19.36;100.00;101515.41;2065617;28;20875;-66
2022/06/17 04:04:40;;;;;;;8.43;6.47;;;;;;;19.56;100.00;101535.38;2065869;28;20484;-67
2022/06/17 04:05:43;;;;;;;6.97;5.73;;;;;;;19.59;100.00;101533.63;2065984;28;20410;-67
2022/06/17 04:06:48;;;;;;;9.27;6.20;;;;;;;19.23;100.00;101481.06;2065902;28;20493;-67
2022/06/17 04:07:48;;;;;;;6.70;5.90;;;;;;;19.65;100.00;101518.44;2065570;28;20979;-66
2022/06/17 04:08:55;;;;;;;6.77;5.87;;;;;;;19.64;100.00;101522.50;2065126;28;20832;-67
2022/06/17 04:09:55;;;;;;;8.83;5.70;;;;;;;19.37;100.00;101465.59;2065327;28;20638;-67
2022/06/17 04:10:57;;;;;;;7.93;6.17;;;;;;;18.66;100.00;101347.25;2065599;28;20493;-66
2022/06/17 04:12:04;;;;;;;8.63;5.80;;;;;;;19.71;100.00;101521.41;2064513;28;20758;-66
2022/06/17 04:13:05;;;;;;;6.93;5.67;;;;;;;19.74;100.00;101507.19;2065471;28;20415;-67
2022/06/17 04:14:20;;;;;;;6.97;5.27;;;;;;;19.78;100.00;101516.22;2065731;28;20419;-66
2022/06/17 04:15:44;;;;;;;7.37;5.60;;;;;;;19.86;100.00;101514.63;2066055;28;20402;-67
2022/06/17 04:16:56;;;;;;;8.70;5.40;;;;;;;19.28;100.00;101415.81;2057853;28;20404;-67
2022/06/17 04:17:57;;;;;;;11.67;5.87;;;;;;;20.01;100.00;101517.53;2057391;28;20469;-67
2022/06/17 04:19:15;;;;;;;11.30;6.80;;;;;;;20.11;100.00;101517.03;2058172;28;20418;-67
2022/06/17 04:20:48;;;;;;;11.17;5.97;;;;;;;20.18;100.00;101516.72;2057720;28;20164;-67
2022/06/17 04:21:49;;;;;;;6.80;5.20;;;;;;;20.16;100.00;101502.31;2062088;28;20831;-66
2022/06/17 04:22:52;;;;;;;8.33;5.57;;;;;;;19.97;100.00;101471.91;2064823;28;21047;-67
2022/06/17 04:23:53;;;;;;;8.40;5.27;;;;;;;20.33;100.00;101516.78;2065750;28;20919;-66
2022/06/17 04:25:01;;;;;;;8.70;5.57;;;;;;;20.38;100.00;101519.72;2065684;28;20431;-67
2022/06/17 04:26:06;;;;;;;7.70;5.63;;;;;;;20.43;100.00;101519.06;2065980;28;20412;-66
2022/06/17 04:27:12;;;;;;;11.93;5.50;;;;;;;19.49;100.00;101367.00;2065990;28;20420;-67
2022/06/17 04:28:18;;;;;;;8.03;5.60;;;;;;;20.47;100.00;101516.06;2065355;28;20450;-67
2022/06/17 04:29:38;;;;;;;8.50;6.10;;;;;;;20.58;100.00;101519.88;2065995;28;21020;-66
2022/06/17 04:30:46;;;;;;;6.83;5.53;;;;;;;20.68;100.00;101520.63;2065872;28;20912;-66
2022/06/17 04:31:59;;;;;;;8.73;5.37;;;;;;;20.75;100.00;101517.44;2064264;28;20549;-66
2022/06/17 04:33:05;;;;;;;12.10;5.33;;;;;;;20.80;100.00;101526.00;2064785;28;20926;-66
2022/06/17 04:34:13;;;;;;;6.23;5.40;;;;;;;20.83;100.00;101518.63;2057373;28;20923;-67
2022/06/17 04:35:14;;;;;;;11.90;8.20;;;;;;;20.19;100.00;101411.31;2057636;28;20394;-66
2022/06/17 04:36:24;;;;;;;15.87;6.73;;;;;;;21.01;100.00;101512.88;2057472;28;21022;-67
2022/06/17 04:37:26;;;;;;;14.67;6.60;;;;;;;20.98;100.00;101511.78;2056730;28;20487;-66
2022/06/17 04:38:31;;;;;;;11.57;6.30;;;;;;;21.15;100.00;101518.53;2055760;28;20942;-66
2022/06/17 04:39:56;;;;;;;8.03;6.37;;;;;;;21.24;100.00;101520.50;2061700;28;20504;-66
2022/06/17 04:41:01;;;;;;;11.80;6.90;;;;;;;21.29;100.00;101509.31;2063718;28;20428;-66
2022/06/17 04:42:05;;;;;;;16.53;6.87;;;;;;;20.73;100.00;101410.88;2063947;28;20413;-67
2022/06/17 04:43:17;;;;;;;9.40;6.10;;;;;;;21.28;100.00;101493.66;2063228;28;20425;-66
2022/06/17 04:44:18;;;;;;;9.63;5.83;;;;;;;21.36;100.00;101494.06;2064302;28;20417;-66
2022/06/17 04:45:22;;;;;;;11.40;5.63;;;;;;;21.45;100.00;101494.72;2061284;28;20447;-66
2022/06/17 04:46:32;;;;;;;12.60;5.93;;;;;;;21.55;100.00;101492.59;2063400;28;20217;-66
2022/06/17 04:47:33;;;;;;;11.30;6.13;;;;;;;21.59;100.00;101496.00;2063282;28;20576;-65
2022/06/17 04:48:34;;;;;;;11.57;5.73;;;;;;;21.67;100.00;101503.59;2058118;28;20477;-66
2022/06/17 04:49:38;;;;;;;10.83;6.13;;;;;;;21.72;100.00;101499.31;2056023;28;20591;-65
2022/06/17 04:50:38;;;;;;;9.90;6.00;;;;;;;21.77;100.00;101498.63;2059815;28;20672;-66
2022/06/17 04:51:39;;;;;;;12.53;6.70;;;;;;;21.76;100.00;101503.50;2062691;28;20898;-66
2022/06/17 04:52:42;;;;;;;9.40;6.10;;;;;;;21.84;100.00;101504.66;2059073;28;20638;-66
2022/06/17 04:53:45;;;;;;;9.90;6.10;;;;;;;21.72;100.00;101486.00;2063625;28;20216;-66
2022/06/17 04:54:46;;;;;;;11.30;5.83;;;;;;;21.82;100.00;101504.38;2060420;28;20421;-66
2022/06/17 04:55:47;;;;;;;9.17;5.13;;;;;;;21.79;100.00;101494.06;2059517;28;20456;-66
2022/06/17 04:56:50;;;;;;;9.27;5.10;;;;;;;21.78;100.00;101494.53;2062957;28;20178;-65
2022/06/17 04:57:51;;;;;;;10.33;5.33;;;;;;;21.84;100.00;101499.00;2062905;28;20421;-66
2022/06/17 04:58:51;;;;;;;10.17;6.13;;;;;;;21.89;100.00;101500.34;2062817;28;20483;-66
2022/06/17 04:59:55;;;;;;;17.13;7.30;;;;;;;21.93;100.00;101503.75;2062978;28;20202;-66
2022/06/17 05:00:56;;;;;;;18.03;8.53;;;;;;;21.98;100.00;101503.06;2063482;28;20193;-66
2022/06/17 05:01:59;;;;;;;21.83;13.80;;;;;;;22.03;100.00;101508.00;2062817;28;20449;-66
2022/06/17 05:02:59;;;;;;;15.73;11.80;;;;;;;22.06;100.00;101516.28;2063726;28;20429;-65
2022/06/17 05:04:02;;;;;;;15.30;8.07;;;;;;;21.10;100.00;101367.03;2061455;28;20446;-66
2022/06/17 05:05:08;;;;;;;10.57;6.37;;;;;;;21.52;100.00;101423.84;2063360;28;20705;-65